createdAt,value
2017-09-19T00:00:10.275Z,1008.49
2017-09-19T00:01:10.278Z,1008.51
2017-09-19T00:02:04.943Z,1008.54
2017-09-19T00:02:58.939Z,1008.50
2017-09-19T00:03:58.997Z,1008.57
2017-09-19T00:04:54.044Z,1008.55
2017-09-19T00:05:49.553Z,1008.51
2017-09-19T00:06:50.020Z,1008.54
2017-09-19T00:07:44.399Z,1008.54
2017-09-19T00:08:32.186Z,1008.51
2017-09-19T00:09:32.233Z,1008.53
2017-09-19T00:10:32.236Z,1008.56
2017-09-19T00:11:27.279Z,1008.59
2017-09-19T00:12:21.390Z,1008.59
2017-09-19T00:13:09.359Z,1008.59
2017-09-19T00:13:58.422Z,1008.58
2017-09-19T00:14:47.394Z,1008.58
2017-09-19T00:15:41.503Z,1008.59
2017-09-19T00:16:41.508Z,1008.62
2017-09-19T00:17:29.499Z,1008.59
2017-09-19T00:18:29.594Z,1008.62
2017-09-19T00:19:18.574Z,1008.58
2017-09-19T00:20:07.631Z,1008.56
2017-09-19T00:21:01.646Z,1008.55
2017-09-19T00:21:55.738Z,1008.58
2017-09-19T00:22:50.733Z,1008.60
2017-09-19T00:23:44.830Z,1008.61
2017-09-19T00:24:44.795Z,1008.58
2017-09-19T00:25:33.837Z,1008.61
2017-09-19T00:26:27.881Z,1008.55
2017-09-19T00:27:16.907Z,1008.56
2017-09-19T00:28:11.117Z,1008.58
2017-09-19T00:29:05.046Z,1008.59
2017-09-19T00:29:54.028Z,1008.57
2017-09-19T00:30:42.201Z,1008.56
2017-09-19T00:31:36.153Z,1008.58
2017-09-19T00:32:24.133Z,1008.58
2017-09-19T00:33:13.188Z,1008.53
2017-09-19T00:34:01.244Z,1008.57
2017-09-19T00:34:49.336Z,1008.55
2017-09-19T00:35:38.473Z,1008.54
2017-09-19T00:36:26.396Z,1008.55
2017-09-19T00:37:14.427Z,1008.55
2017-09-19T00:38:02.453Z,1008.55
2017-09-19T00:38:51.517Z,1008.54
2017-09-19T00:39:39.518Z,1008.51
2017-09-19T00:40:33.578Z,1008.52
2017-09-19T00:41:21.587Z,1008.54
2017-09-19T00:42:10.998Z,1008.50
2017-09-19T00:42:58.643Z,1008.52
2017-09-19T00:43:53.950Z,1008.52
2017-09-19T00:44:48.712Z,1008.52
2017-09-19T00:45:49.281Z,1008.51
2017-09-19T00:46:36.844Z,1008.52
2017-09-19T00:47:24.835Z,1008.50
2017-09-19T00:48:13.894Z,1008.51
2017-09-19T00:49:01.934Z,1008.48
2017-09-19T00:49:55.956Z,1008.49
2017-09-19T00:50:50.480Z,1008.46
2017-09-19T00:51:50.060Z,1008.46
2017-09-19T00:52:50.057Z,1008.44
2017-09-19T00:53:45.081Z,1008.44
2017-09-19T00:54:39.184Z,1008.48
2017-09-19T00:55:40.171Z,1008.45
2017-09-19T00:56:40.215Z,1008.46
2017-09-19T00:57:35.252Z,1008.43
2017-09-19T00:58:35.566Z,1008.45
2017-09-19T00:59:29.313Z,1008.49
2017-09-19T01:00:29.398Z,1008.47
2017-09-19T01:01:24.325Z,1008.44
2017-09-19T01:02:19.421Z,1008.47
2017-09-19T01:03:19.423Z,1008.48
2017-09-19T01:04:14.435Z,1008.45
2017-09-19T01:05:09.556Z,1008.45
2017-09-19T01:06:11.005Z,1008.50
2017-09-19T01:07:11.587Z,1008.47
2017-09-19T01:08:06.854Z,1008.47
2017-09-19T01:09:00.663Z,1008.48
2017-09-19T01:10:00.635Z,1008.46
2017-09-19T01:11:00.837Z,1008.48
2017-09-19T01:11:55.738Z,1008.52
2017-09-19T01:12:49.761Z,1008.49
2017-09-19T01:13:50.812Z,1008.49
2017-09-19T01:14:51.853Z,1008.45
2017-09-19T01:15:51.851Z,1008.49
2017-09-19T01:16:52.049Z,1008.48
2017-09-19T01:17:51.938Z,1008.45
2017-09-19T01:18:53.007Z,1008.47
2017-09-19T01:19:53.978Z,1008.52
2017-09-19T01:20:48.018Z,1008.51
2017-09-19T01:21:48.303Z,1008.54
2017-09-19T01:22:43.059Z,1008.54
2017-09-19T01:23:43.049Z,1008.54
2017-09-19T01:24:43.145Z,1008.52
2017-09-19T01:25:49.279Z,1008.55
2017-09-19T01:26:44.195Z,1008.55
2017-09-19T01:27:44.210Z,1008.55
2017-09-19T01:28:44.257Z,1008.54
2017-09-19T01:29:44.273Z,1008.56
2017-09-19T01:30:39.317Z,1008.59
2017-09-19T01:31:39.309Z,1008.57
2017-09-19T01:32:39.354Z,1008.58
2017-09-19T01:33:34.436Z,1008.57
2017-09-19T01:34:34.419Z,1008.56
2017-09-19T01:35:29.523Z,1008.59
2017-09-19T01:36:29.531Z,1008.58
2017-09-19T01:37:23.520Z,1008.58
2017-09-19T01:38:24.544Z,1008.60
2017-09-19T01:39:24.616Z,1008.59
2017-09-19T01:40:19.639Z,1008.58
2017-09-19T01:41:15.140Z,1008.56
2017-09-19T01:42:02.736Z,1008.60
2017-09-19T01:42:50.797Z,1008.56
2017-09-19T01:43:39.823Z,1008.58
2017-09-19T01:44:27.808Z,1008.61
2017-09-19T01:45:15.972Z,1008.60
2017-09-19T01:46:04.936Z,1008.62
2017-09-19T01:46:52.939Z,1008.58
2017-09-19T01:47:40.987Z,1008.62
2017-09-19T01:48:29.030Z,1008.57
2017-09-19T01:49:18.052Z,1008.61
2017-09-19T01:50:06.196Z,1008.61
2017-09-19T01:51:06.248Z,1008.59
2017-09-19T01:52:01.306Z,1008.59
2017-09-19T01:53:01.301Z,1008.57
2017-09-19T01:53:56.301Z,1008.55
2017-09-19T01:54:51.336Z,1008.57
2017-09-19T01:55:45.349Z,1008.59
2017-09-19T01:56:39.318Z,1008.58
2017-09-19T01:57:39.457Z,1008.56
2017-09-19T01:58:33.452Z,1008.53
2017-09-19T01:59:33.445Z,1008.55
2017-09-19T02:00:28.538Z,1008.55
2017-09-19T02:01:23.527Z,1008.55
2017-09-19T02:02:23.525Z,1008.54
2017-09-19T02:03:18.621Z,1008.54
2017-09-19T02:04:18.696Z,1008.54
2017-09-19T02:05:12.676Z,1008.52
2017-09-19T02:06:13.146Z,1008.54
2017-09-19T02:07:07.753Z,1008.59
2017-09-19T02:08:02.770Z,1008.52
2017-09-19T02:09:02.905Z,1008.54
2017-09-19T02:09:57.807Z,1008.55
2017-09-19T02:10:53.317Z,1008.57
2017-09-19T02:11:52.859Z,1008.55
2017-09-19T02:12:48.046Z,1008.54
2017-09-19T02:13:43.014Z,1008.53
2017-09-19T02:14:49.140Z,1008.52
2017-09-19T02:15:42.966Z,1008.52
2017-09-19T02:16:43.045Z,1008.52
2017-09-19T02:17:38.058Z,1008.55
2017-09-19T02:18:44.122Z,1008.55
2017-09-19T02:19:39.133Z,1008.53
2017-09-19T02:20:33.564Z,1008.53
2017-09-19T02:21:34.226Z,1008.55
2017-09-19T02:22:29.246Z,1008.54
2017-09-19T02:23:23.250Z,1008.56
2017-09-19T02:24:23.344Z,1008.52
2017-09-19T02:25:23.319Z,1008.54
2017-09-19T02:26:18.639Z,1008.51
2017-09-19T02:27:12.439Z,1008.50
2017-09-19T02:28:12.440Z,1008.50
2017-09-19T02:29:07.432Z,1008.50
2017-09-19T02:30:02.516Z,1008.49
2017-09-19T02:31:03.515Z,1008.50
2017-09-19T02:32:03.658Z,1008.49
2017-09-19T02:33:03.568Z,1008.50
2017-09-19T02:34:03.662Z,1008.52
2017-09-19T02:35:04.632Z,1008.54
2017-09-19T02:36:06.132Z,1008.51
2017-09-19T02:37:00.120Z,1008.57
2017-09-19T02:37:59.784Z,1008.52
2017-09-19T02:38:54.823Z,1008.55
2017-09-19T02:39:49.831Z,1008.53
2017-09-19T02:40:50.242Z,1008.54
2017-09-19T02:41:44.899Z,1008.58
2017-09-19T02:42:39.966Z,1008.63
2017-09-19T02:43:40.029Z,1008.58
2017-09-19T02:44:35.014Z,1008.55
2017-09-19T02:45:24.036Z,1008.59
2017-09-19T02:46:24.053Z,1008.56
2017-09-19T02:47:13.021Z,1008.55
2017-09-19T02:48:07.448Z,1008.61
2017-09-19T02:49:01.387Z,1008.60
2017-09-19T02:49:49.245Z,1008.61
2017-09-19T02:50:37.236Z,1008.61
2017-09-19T02:51:26.304Z,1008.63
2017-09-19T02:52:14.340Z,1008.64
2017-09-19T02:53:02.364Z,1008.62
2017-09-19T02:53:51.504Z,1008.59
2017-09-19T02:54:39.446Z,1008.63
2017-09-19T02:55:28.487Z,1008.62
2017-09-19T02:56:17.041Z,1008.57
2017-09-19T02:57:04.602Z,1008.61
2017-09-19T02:57:52.648Z,1008.60
2017-09-19T02:58:41.692Z,1008.59
2017-09-19T02:59:29.737Z,1008.60
2017-09-19T03:00:17.792Z,1008.60
2017-09-19T03:01:06.784Z,1008.61
2017-09-19T03:01:54.844Z,1008.64
2017-09-19T03:02:42.850Z,1008.65
2017-09-19T03:03:32.110Z,1008.60
2017-09-19T03:04:31.982Z,1008.65
2017-09-19T03:05:26.342Z,1008.63
2017-09-19T03:06:19.978Z,1008.60
2017-09-19T03:07:08.041Z,1008.64
2017-09-19T03:07:57.274Z,1008.64
2017-09-19T03:08:52.489Z,1008.61
2017-09-19T03:09:41.139Z,1008.60
2017-09-19T03:10:30.206Z,1008.64
2017-09-19T03:11:19.446Z,1008.63
2017-09-19T03:12:07.328Z,1008.64
2017-09-19T03:12:55.389Z,1008.64
2017-09-19T03:14:01.306Z,1008.70
2017-09-19T03:14:56.714Z,1008.69
2017-09-19T03:15:44.573Z,1008.70
2017-09-19T03:16:38.427Z,1008.72
2017-09-19T03:17:26.586Z,1008.70
2017-09-19T03:18:15.519Z,1008.68
2017-09-19T03:19:03.549Z,1008.69
2017-09-19T03:20:09.581Z,1008.67
2017-09-19T03:21:04.787Z,1008.65
2017-09-19T03:21:58.645Z,1008.63
2017-09-19T03:22:52.728Z,1008.62
2017-09-19T03:23:47.754Z,1008.61
2017-09-19T03:24:47.778Z,1008.60
2017-09-19T03:25:42.838Z,1008.60
2017-09-19T03:26:37.881Z,1008.59
2017-09-19T03:27:37.907Z,1008.58
2017-09-19T03:28:33.165Z,1008.56
2017-09-19T03:29:27.968Z,1008.53
2017-09-19T03:30:33.959Z,1008.56
2017-09-19T03:31:28.006Z,1008.55
2017-09-19T03:32:28.080Z,1008.56
2017-09-19T03:33:23.096Z,1008.55
2017-09-19T03:34:23.128Z,1008.53
2017-09-19T03:35:17.153Z,1008.56
2017-09-19T03:36:18.637Z,1008.58
2017-09-19T03:37:18.213Z,1008.61
2017-09-19T03:38:13.301Z,1008.62
2017-09-19T03:39:13.300Z,1008.60
2017-09-19T03:40:07.416Z,1008.64
2017-09-19T03:41:08.481Z,1008.62
2017-09-19T03:42:09.396Z,1008.63
2017-09-19T03:43:04.398Z,1008.61
2017-09-19T03:43:58.448Z,1008.66
2017-09-19T03:44:58.502Z,1008.65
2017-09-19T03:45:53.935Z,1008.61
2017-09-19T03:46:53.562Z,1008.63
2017-09-19T03:47:54.573Z,1008.63
2017-09-19T03:48:48.950Z,1008.60
2017-09-19T03:49:43.671Z,1008.63
2017-09-19T03:50:32.032Z,1008.64
2017-09-19T03:51:20.838Z,1008.66
2017-09-19T03:52:09.745Z,1008.69
2017-09-19T03:52:57.834Z,1008.65
2017-09-19T03:53:45.807Z,1008.66
2017-09-19T03:54:33.907Z,1008.66
2017-09-19T03:55:21.940Z,1008.68
2017-09-19T03:56:11.041Z,1008.69
2017-09-19T03:57:11.008Z,1008.68
2017-09-19T03:58:05.024Z,1008.66
2017-09-19T03:59:00.063Z,1008.68
2017-09-19T03:59:54.379Z,1008.66
2017-09-19T04:00:48.502Z,1008.68
2017-09-19T04:01:42.215Z,1008.67
2017-09-19T04:02:36.273Z,1008.69
2017-09-19T04:03:24.212Z,1008.66
2017-09-19T04:04:12.667Z,1008.69
2017-09-19T04:05:00.297Z,1008.66
2017-09-19T04:05:48.395Z,1008.66
2017-09-19T04:06:42.458Z,1008.63
2017-09-19T04:07:31.470Z,1008.68
2017-09-19T04:08:31.501Z,1008.64
2017-09-19T04:09:20.538Z,1008.64
2017-09-19T04:10:08.586Z,1008.64
2017-09-19T04:10:57.777Z,1008.64
2017-09-19T04:11:45.668Z,1008.63
2017-09-19T04:12:39.707Z,1008.62
2017-09-19T04:13:39.786Z,1008.67
2017-09-19T04:14:39.785Z,1008.61
2017-09-19T04:15:34.825Z,1008.63
2017-09-19T04:16:28.851Z,1008.65
2017-09-19T04:17:16.833Z,1008.64
2017-09-19T04:18:10.976Z,1008.66
2017-09-19T04:18:59.910Z,1008.66
2017-09-19T04:19:47.957Z,1008.67
2017-09-19T04:20:35.999Z,1008.71
2017-09-19T04:21:23.999Z,1008.73
2017-09-19T04:22:18.120Z,1008.66
2017-09-19T04:23:06.156Z,1008.66
2017-09-19T04:23:54.153Z,1008.71
2017-09-19T04:24:48.203Z,1008.66
2017-09-19T04:25:37.263Z,1008.66
2017-09-19T04:26:31.388Z,1008.69
2017-09-19T04:27:19.355Z,1008.68
2017-09-19T04:28:14.374Z,1008.74
2017-09-19T04:29:02.405Z,1008.76
2017-09-19T04:29:56.486Z,1008.73
2017-09-19T04:30:44.499Z,1008.76
2017-09-19T04:31:38.528Z,1008.73
2017-09-19T04:32:32.551Z,1008.75
2017-09-19T04:33:33.592Z,1008.74
2017-09-19T04:34:33.620Z,1008.73
2017-09-19T04:35:29.064Z,1008.70
2017-09-19T04:36:28.676Z,1008.72
2017-09-19T04:37:22.737Z,1008.77
2017-09-19T04:38:22.951Z,1008.72
2017-09-19T04:39:17.750Z,1008.75
2017-09-19T04:40:12.852Z,1008.76
2017-09-19T04:41:12.840Z,1008.76
2017-09-19T04:42:07.888Z,1008.80
2017-09-19T04:43:02.897Z,1008.78
2017-09-19T04:44:04.413Z,1008.79
2017-09-19T04:45:04.147Z,1008.85
2017-09-19T04:46:04.125Z,1008.85
2017-09-19T04:46:59.315Z,1008.85
2017-09-19T04:47:53.031Z,1008.89
2017-09-19T04:48:54.103Z,1008.88
2017-09-19T04:49:49.169Z,1008.91
2017-09-19T04:50:43.164Z,1008.90
2017-09-19T04:51:31.312Z,1008.91
2017-09-19T04:52:20.233Z,1008.95
2017-09-19T04:53:08.302Z,1008.91
2017-09-19T04:53:56.349Z,1008.94
2017-09-19T04:54:44.421Z,1008.92
2017-09-19T04:55:33.915Z,1008.96
2017-09-19T04:56:21.477Z,1008.94
2017-09-19T04:57:10.492Z,1008.98
2017-09-19T04:57:58.558Z,1009.01
2017-09-19T04:58:46.630Z,1009.00
2017-09-19T04:59:35.640Z,1009.00
2017-09-19T05:00:23.666Z,1009.03
2017-09-19T05:01:17.773Z,1009.03
2017-09-19T05:02:12.706Z,1009.05
2017-09-19T05:03:12.785Z,1009.10
2017-09-19T05:04:01.106Z,1009.04
2017-09-19T05:04:48.825Z,1009.08
2017-09-19T05:05:37.345Z,1009.09
2017-09-19T05:06:25.985Z,1009.06
2017-09-19T05:07:13.995Z,1009.09
2017-09-19T05:08:03.475Z,1009.09
2017-09-19T05:08:51.072Z,1009.07
2017-09-19T05:10:04.109Z,1009.06
2017-09-19T05:10:53.143Z,1009.08
2017-09-19T05:11:47.212Z,1009.08
2017-09-19T05:12:42.193Z,1009.08
2017-09-19T05:13:37.268Z,1009.07
2017-09-19T05:14:32.209Z,1009.06
2017-09-19T05:15:26.402Z,1009.09
2017-09-19T05:16:26.390Z,1009.14
2017-09-19T05:17:27.641Z,1009.12
2017-09-19T05:18:22.440Z,1009.12
2017-09-19T05:19:16.482Z,1009.13
2017-09-19T05:20:17.470Z,1009.12
2017-09-19T05:21:17.687Z,1009.16
2017-09-19T05:22:12.582Z,1009.17
2017-09-19T05:23:12.696Z,1009.16
2017-09-19T05:24:12.603Z,1009.16
2017-09-19T05:25:12.636Z,1009.14
2017-09-19T05:26:06.705Z,1009.16
2017-09-19T05:27:06.722Z,1009.21
2017-09-19T05:28:02.220Z,1009.17
2017-09-19T05:28:57.136Z,1009.20
2017-09-19T05:29:50.841Z,1009.17
2017-09-19T05:30:51.845Z,1009.22
2017-09-19T05:31:57.847Z,1009.22
2017-09-19T05:32:51.904Z,1009.23
2017-09-19T05:33:52.917Z,1009.27
2017-09-19T05:34:53.077Z,1009.23
2017-09-19T05:35:53.050Z,1009.27
2017-09-19T05:36:47.993Z,1009.26
2017-09-19T05:37:48.050Z,1009.25
2017-09-19T05:38:48.047Z,1009.29
2017-09-19T05:39:48.206Z,1009.27
2017-09-19T05:40:48.166Z,1009.30
2017-09-19T05:41:48.206Z,1009.29
2017-09-19T05:42:48.188Z,1009.28
2017-09-19T05:43:37.268Z,1009.28
2017-09-19T05:44:25.315Z,1009.28
2017-09-19T05:45:13.293Z,1009.30
2017-09-19T05:46:02.458Z,1009.27
2017-09-19T05:46:50.461Z,1009.30
2017-09-19T05:47:38.504Z,1009.32
2017-09-19T05:48:27.621Z,1009.34
2017-09-19T05:49:15.524Z,1009.32
2017-09-19T05:50:03.648Z,1009.33
2017-09-19T05:50:52.636Z,1009.33
2017-09-19T05:51:40.726Z,1009.36
2017-09-19T05:52:29.747Z,1009.39
2017-09-19T05:53:17.756Z,1009.40
2017-09-19T05:54:05.861Z,1009.42
2017-09-19T05:54:53.884Z,1009.42
2017-09-19T05:55:42.929Z,1009.38
2017-09-19T05:56:30.931Z,1009.47
2017-09-19T05:57:20.031Z,1009.43
2017-09-19T05:58:08.041Z,1009.48
2017-09-19T05:58:57.066Z,1009.46
2017-09-19T05:59:45.079Z,1009.45
2017-09-19T06:00:34.557Z,1009.49
2017-09-19T06:01:22.242Z,1009.47
2017-09-19T06:02:11.325Z,1009.50
2017-09-19T06:02:59.350Z,1009.49
2017-09-19T06:03:47.374Z,1009.51
2017-09-19T06:04:35.340Z,1009.50
2017-09-19T06:05:23.510Z,1009.52
2017-09-19T06:06:12.485Z,1009.51
2017-09-19T06:07:00.530Z,1009.52
2017-09-19T06:07:48.523Z,1009.59
2017-09-19T06:08:37.660Z,1009.54
2017-09-19T06:09:31.712Z,1009.59
2017-09-19T06:10:19.680Z,1009.58
2017-09-19T06:11:07.776Z,1009.58
2017-09-19T06:11:55.748Z,1009.59
2017-09-19T06:12:44.733Z,1009.59
2017-09-19T06:13:32.808Z,1009.63
2017-09-19T06:14:21.890Z,1009.64
2017-09-19T06:15:09.890Z,1009.65
2017-09-19T06:15:57.951Z,1009.66
2017-09-19T06:16:47.006Z,1009.66
2017-09-19T06:17:35.013Z,1009.70
2017-09-19T06:18:23.052Z,1009.69
2017-09-19T06:19:23.119Z,1009.72
2017-09-19T06:20:17.168Z,1009.75
2017-09-19T06:21:05.175Z,1009.74
2017-09-19T06:22:00.211Z,1009.73
2017-09-19T06:22:49.271Z,1009.75
2017-09-19T06:23:43.314Z,1009.78
2017-09-19T06:24:31.524Z,1009.76
2017-09-19T06:25:31.711Z,1009.79
2017-09-19T06:26:19.432Z,1009.79
2017-09-19T06:27:13.472Z,1009.78
2017-09-19T06:28:07.523Z,1009.79
2017-09-19T06:29:08.503Z,1009.82
2017-09-19T06:30:09.542Z,1009.82
2017-09-19T06:31:09.581Z,1009.80
2017-09-19T06:32:04.637Z,1009.83
2017-09-19T06:33:04.647Z,1009.84
2017-09-19T06:33:59.646Z,1009.86
2017-09-19T06:34:54.706Z,1009.88
2017-09-19T06:35:48.898Z,1009.88
2017-09-19T06:36:48.790Z,1009.91
2017-09-19T06:37:43.851Z,1009.91
2017-09-19T06:38:38.845Z,1009.89
2017-09-19T06:39:26.926Z,1009.91
2017-09-19T06:40:16.266Z,1009.94
2017-09-19T06:41:16.152Z,1009.88
2017-09-19T06:42:15.996Z,1009.93
2017-09-19T06:43:10.042Z,1009.90
2017-09-19T06:43:58.142Z,1009.92
2017-09-19T06:44:53.211Z,1009.89
2017-09-19T06:45:47.150Z,1009.93
2017-09-19T06:46:41.310Z,1009.94
2017-09-19T06:47:30.235Z,1009.88
2017-09-19T06:48:24.305Z,1009.88
2017-09-19T06:49:13.346Z,1009.90
2017-09-19T06:50:07.359Z,1009.93
2017-09-19T06:51:07.365Z,1009.98
2017-09-19T06:52:02.404Z,1009.97
2017-09-19T06:52:50.451Z,1009.99
2017-09-19T06:53:38.510Z,1010.00
2017-09-19T06:54:26.524Z,1010.01
2017-09-19T06:55:15.583Z,1010.02
2017-09-19T06:56:10.619Z,1010.04
2017-09-19T06:57:11.689Z,1010.02
2017-09-19T06:58:12.679Z,1010.01
2017-09-19T06:59:06.719Z,1009.98
2017-09-19T07:00:06.760Z,1010.00
2017-09-19T07:00:54.756Z,1010.00
2017-09-19T07:01:42.821Z,1009.98
2017-09-19T07:02:42.888Z,1009.99
2017-09-19T07:03:37.887Z,1009.98
2017-09-19T07:04:26.964Z,1010.02
2017-09-19T07:05:15.952Z,1010.02
2017-09-19T07:06:04.069Z,1010.01
2017-09-19T07:06:58.076Z,1010.00
2017-09-19T07:07:46.250Z,1010.03
2017-09-19T07:08:35.140Z,1009.98
2017-09-19T07:09:24.179Z,1010.01
2017-09-19T07:10:12.564Z,1010.04
2017-09-19T07:11:00.285Z,1010.01
2017-09-19T07:11:48.296Z,1010.01
2017-09-19T07:12:37.364Z,1010.01
2017-09-19T07:13:32.399Z,1010.04
2017-09-19T07:14:21.693Z,1010.07
2017-09-19T07:15:15.511Z,1010.11
2017-09-19T07:16:15.536Z,1010.11
2017-09-19T07:17:04.565Z,1010.12
2017-09-19T07:17:58.774Z,1010.12
2017-09-19T07:18:52.601Z,1010.14
2017-09-19T07:19:46.706Z,1010.16
2017-09-19T07:20:46.715Z,1010.17
2017-09-19T07:21:34.776Z,1010.22
2017-09-19T07:22:29.810Z,1010.17
2017-09-19T07:23:30.844Z,1010.16
2017-09-19T07:24:20.202Z,1010.17
2017-09-19T07:25:08.901Z,1010.21
2017-09-19T07:26:03.978Z,1010.22
2017-09-19T07:26:58.006Z,1010.27
2017-09-19T07:27:52.049Z,1010.28
2017-09-19T07:28:41.231Z,1010.29
2017-09-19T07:29:29.400Z,1010.28
2017-09-19T07:30:30.148Z,1010.29
2017-09-19T07:31:19.214Z,1010.29
2017-09-19T07:32:14.226Z,1010.32
2017-09-19T07:33:08.294Z,1010.33
2017-09-19T07:33:56.313Z,1010.33
2017-09-19T07:34:57.458Z,1010.32
2017-09-19T07:35:46.413Z,1010.32
2017-09-19T07:36:35.423Z,1010.37
2017-09-19T07:37:24.475Z,1010.41
2017-09-19T07:38:18.505Z,1010.41
2017-09-19T07:39:13.927Z,1010.38
2017-09-19T07:40:08.629Z,1010.40
2017-09-19T07:41:03.638Z,1010.39
2017-09-19T07:41:57.696Z,1010.39
2017-09-19T07:42:52.669Z,1010.45
2017-09-19T07:43:47.742Z,1010.44
2017-09-19T07:44:36.808Z,1010.47
2017-09-19T07:45:24.874Z,1010.49
2017-09-19T07:46:12.882Z,1010.51
2017-09-19T07:47:07.947Z,1010.56
2017-09-19T07:48:02.961Z,1010.51
2017-09-19T07:48:56.994Z,1010.55
2017-09-19T07:49:52.064Z,1010.56
2017-09-19T07:50:46.537Z,1010.59
2017-09-19T07:51:41.120Z,1010.61
2017-09-19T07:52:41.454Z,1010.61
2017-09-19T07:53:29.194Z,1010.62
2017-09-19T07:54:17.215Z,1010.63
2017-09-19T07:55:11.582Z,1010.61
2017-09-19T07:56:05.793Z,1010.66
2017-09-19T07:57:06.664Z,1010.67
2017-09-19T07:58:01.622Z,1010.69
2017-09-19T07:58:50.420Z,1010.65
2017-09-19T07:59:44.500Z,1010.66
2017-09-19T08:00:33.741Z,1010.70
2017-09-19T08:01:33.606Z,1010.75
2017-09-19T08:02:28.886Z,1010.70
2017-09-19T08:03:16.608Z,1010.72
2017-09-19T08:04:16.746Z,1010.71
2017-09-19T08:05:11.729Z,1010.71
2017-09-19T08:06:05.952Z,1010.68
2017-09-19T08:06:53.839Z,1010.64
2017-09-19T08:07:41.895Z,1010.65
2017-09-19T08:08:35.906Z,1010.63
2017-09-19T08:09:29.906Z,1010.62
2017-09-19T08:10:30.008Z,1010.57
2017-09-19T08:11:25.003Z,1010.58
2017-09-19T08:12:19.092Z,1010.62
2017-09-19T08:13:08.074Z,1010.67
2017-09-19T08:14:02.148Z,1010.70
2017-09-19T08:14:56.214Z,1010.71
2017-09-19T08:15:56.525Z,1010.71
2017-09-19T08:16:50.592Z,1010.72
2017-09-19T08:17:44.696Z,1010.73
2017-09-19T08:18:33.704Z,1010.71
2017-09-19T08:19:27.763Z,1010.70
2017-09-19T08:20:21.796Z,1010.72
2017-09-19T08:21:10.831Z,1010.73
2017-09-19T08:22:04.868Z,1010.74
2017-09-19T08:22:53.970Z,1010.76
2017-09-19T08:23:42.955Z,1010.77
2017-09-19T08:24:43.104Z,1010.81
2017-09-19T08:25:37.148Z,1010.81
2017-09-19T08:26:37.077Z,1010.83
2017-09-19T08:27:31.126Z,1010.79
2017-09-19T08:28:25.479Z,1010.80
2017-09-19T08:29:20.273Z,1010.88
2017-09-19T08:30:08.303Z,1010.91
2017-09-19T08:31:08.377Z,1010.92
2017-09-19T08:32:02.344Z,1010.89
2017-09-19T08:32:50.464Z,1010.92
2017-09-19T08:33:44.562Z,1010.95
2017-09-19T08:34:38.490Z,1010.93
2017-09-19T08:35:33.546Z,1010.93
2017-09-19T08:36:27.544Z,1010.91
2017-09-19T08:37:27.625Z,1010.90
2017-09-19T08:38:27.694Z,1010.92
2017-09-19T08:39:15.764Z,1010.89
2017-09-19T08:40:10.736Z,1010.99
2017-09-19T08:41:10.815Z,1010.99
2017-09-19T08:42:05.881Z,1011.00
2017-09-19T08:42:59.848Z,1010.98
2017-09-19T08:43:59.869Z,1010.97
2017-09-19T08:44:55.009Z,1010.97
2017-09-19T08:45:55.036Z,1010.99
2017-09-19T08:46:44.077Z,1010.98
2017-09-19T08:47:32.100Z,1010.97
2017-09-19T08:48:20.119Z,1011.02
2017-09-19T08:49:09.217Z,1011.10
2017-09-19T08:50:09.292Z,1011.17
2017-09-19T08:51:09.216Z,1011.11
2017-09-19T08:52:03.344Z,1011.06
2017-09-19T08:52:51.359Z,1011.02
2017-09-19T08:53:52.389Z,1010.95
2017-09-19T08:54:46.485Z,1010.94
2017-09-19T08:55:41.602Z,1010.94
2017-09-19T08:56:41.553Z,1011.04
2017-09-19T08:57:35.562Z,1011.02
2017-09-19T08:58:24.697Z,1011.11
2017-09-19T08:59:13.697Z,1011.11
2017-09-19T09:00:01.745Z,1011.11
2017-09-19T09:00:56.044Z,1011.07
2017-09-19T09:01:43.898Z,1011.04
2017-09-19T09:02:31.851Z,1011.06
2017-09-19T09:03:25.988Z,1011.05
2017-09-19T09:04:14.981Z,1011.05
2017-09-19T09:05:09.014Z,1011.07
2017-09-19T09:05:57.367Z,1011.06
2017-09-19T09:06:45.174Z,1011.04
2017-09-19T09:07:34.162Z,1011.04
2017-09-19T09:08:29.218Z,1011.03
2017-09-19T09:09:17.257Z,1011.06
2017-09-19T09:10:05.338Z,1011.09
2017-09-19T09:10:59.334Z,1011.16
2017-09-19T09:11:48.108Z,1011.19
2017-09-19T09:12:48.516Z,1011.17
2017-09-19T09:13:42.484Z,1011.16
2017-09-19T09:14:36.201Z,1011.18
2017-09-19T09:15:36.685Z,1011.22
2017-09-19T09:16:30.676Z,1011.17
2017-09-19T09:17:18.647Z,1011.18
2017-09-19T09:18:12.712Z,1011.16
2017-09-19T09:19:06.750Z,1011.20
2017-09-19T09:20:00.768Z,1011.18
2017-09-19T09:20:48.890Z,1011.21
2017-09-19T09:21:43.899Z,1011.20
2017-09-19T09:22:38.998Z,1011.26
2017-09-19T09:23:28.044Z,1011.26
2017-09-19T09:24:17.087Z,1011.34
2017-09-19T09:25:06.103Z,1011.33
2017-09-19T09:26:00.178Z,1011.34
2017-09-19T09:26:55.234Z,1011.29
2017-09-19T09:27:50.192Z,1011.26
2017-09-19T09:28:43.923Z,1011.25
2017-09-19T09:29:38.248Z,1011.29
2017-09-19T09:30:27.154Z,1011.24
2017-09-19T09:31:16.254Z,1011.27
2017-09-19T09:32:05.169Z,1011.34
2017-09-19T09:32:53.226Z,1011.35
2017-09-19T09:33:54.237Z,1011.44
2017-09-19T09:34:49.504Z,1011.44
2017-09-19T09:35:43.699Z,1011.39
2017-09-19T09:36:43.553Z,1011.30
2017-09-19T09:37:37.394Z,1011.24
2017-09-19T09:38:26.624Z,1011.24
2017-09-19T09:39:20.511Z,1011.23
2017-09-19T09:40:08.504Z,1011.25
2017-09-19T09:41:02.921Z,1011.27
2017-09-19T09:42:04.053Z,1011.27
2017-09-19T09:42:58.094Z,1011.31
2017-09-19T09:43:45.758Z,1011.32
2017-09-19T09:44:40.823Z,1011.35
2017-09-19T09:45:34.763Z,1011.30
2017-09-19T09:46:23.866Z,1011.29
2017-09-19T09:47:18.117Z,1011.31
2017-09-19T09:48:18.051Z,1011.27
2017-09-19T09:49:07.129Z,1011.27
2017-09-19T09:50:01.078Z,1011.27
2017-09-19T09:51:01.357Z,1011.31
2017-09-19T09:51:55.575Z,1011.34
2017-09-19T09:52:50.293Z,1011.42
2017-09-19T09:53:44.229Z,1011.49
2017-09-19T09:54:38.282Z,1011.50
2017-09-19T09:55:33.604Z,1011.49
2017-09-19T09:56:22.369Z,1011.44
2017-09-19T09:57:16.779Z,1011.40
2017-09-19T09:58:10.823Z,1011.29
2017-09-19T09:59:05.882Z,1011.33
2017-09-19T09:59:53.902Z,1011.34
2017-09-19T10:00:53.925Z,1011.33
2017-09-19T10:01:48.973Z,1011.38
2017-09-19T10:02:43.042Z,1011.42
2017-09-19T10:03:37.112Z,1011.40
2017-09-19T10:04:31.112Z,1011.35
2017-09-19T10:05:25.195Z,1011.34
2017-09-19T10:06:25.213Z,1011.39
2017-09-19T10:07:20.239Z,1011.43
2017-09-19T10:08:14.266Z,1011.45
2017-09-19T10:09:09.349Z,1011.45
2017-09-19T10:09:58.606Z,1011.49
2017-09-19T10:10:52.436Z,1011.50
2017-09-19T10:11:47.435Z,1011.39
2017-09-19T10:12:47.566Z,1011.33
2017-09-19T10:13:41.562Z,1011.35
2017-09-19T10:14:36.625Z,1011.38
2017-09-19T10:15:30.743Z,1011.38
2017-09-19T10:16:24.759Z,1011.38
2017-09-19T10:17:13.800Z,1011.36
2017-09-19T10:18:08.836Z,1011.37
2017-09-19T10:18:57.873Z,1011.45
2017-09-19T10:19:57.863Z,1011.45
2017-09-19T10:20:52.948Z,1011.54
2017-09-19T10:21:46.918Z,1011.52
2017-09-19T10:22:47.002Z,1011.53
2017-09-19T10:23:41.099Z,1011.49
2017-09-19T10:24:41.203Z,1011.53
2017-09-19T10:25:30.173Z,1011.55
2017-09-19T10:26:25.251Z,1011.56
2017-09-19T10:27:25.270Z,1011.49
2017-09-19T10:28:25.331Z,1011.50
2017-09-19T10:29:19.377Z,1011.53
2017-09-19T10:30:19.345Z,1011.62
2017-09-19T10:31:13.421Z,1011.55
2017-09-19T10:32:13.438Z,1011.57
2017-09-19T10:33:07.535Z,1011.54
2017-09-19T10:34:07.629Z,1011.57
2017-09-19T10:35:01.614Z,1011.54
2017-09-19T10:36:02.701Z,1011.56
2017-09-19T10:37:02.693Z,1011.65
2017-09-19T10:37:51.848Z,1011.62
2017-09-19T10:38:45.739Z,1011.66
2017-09-19T10:39:39.817Z,1011.65
2017-09-19T10:40:33.903Z,1011.68
2017-09-19T10:41:33.925Z,1011.68
2017-09-19T10:42:27.979Z,1011.70
2017-09-19T10:43:22.729Z,1011.71
2017-09-19T10:44:17.148Z,1011.66
2017-09-19T10:45:10.758Z,1011.66
2017-09-19T10:46:04.773Z,1011.65
2017-09-19T10:46:58.873Z,1011.65
2017-09-19T10:47:59.212Z,1011.65
2017-09-19T10:48:48.097Z,1011.71
2017-09-19T10:49:37.007Z,1011.74
2017-09-19T10:50:31.116Z,1011.71